Time;durP1;ratioP1;P1;durP2;ratioP2;P2;SDS_P1;SDS_P2;PMS_P1;PMS_P2;Temp;Humidity;BMP_temperature;BMP_pressure;BME280_temperature;BME280_humidity;BME280_pressure;Samples;Min_cycle;Max_cycle;Signal;HPM_P1;HPM_P2
2023/08/03 00:01:22;;;;;;;9.23;7.42;;;;;;;20.36;94.54;99439.12;1663906;86;21056;-62
2023/08/03 00:03:53;;;;;;;10.63;7.80;;;;;;;20.36;94.74;99441.90;1663542;86;21067;-63
2023/08/03 00:06:23;;;;;;;11.30;8.35;;;;;;;20.33;94.79;99440.52;1663649;86;21039;-62
2023/08/03 00:08:53;;;;;;;11.15;7.80;;;;;;;20.32;95.09;99443.03;1663753;86;21039;-62
2023/08/03 00:11:23;;;;;;;11.48;8.13;;;;;;;20.33;95.14;99439.69;1663823;86;21063;-63
2023/08/03 00:13:53;;;;;;;12.37;8.10;;;;;;;20.31;95.32;99439.97;1663520;86;21059;-63
2023/08/03 00:16:23;;;;;;;18.45;8.93;;;;;;;20.31;95.34;99444.70;1663792;86;21067;-61
2023/08/03 00:18:53;;;;;;;10.88;7.92;;;;;;;20.30;95.52;99449.99;1663780;86;21189;-62
2023/08/03 00:21:21;;;;;;;12.73;7.90;;;;;;;20.30;95.85;99452.22;1663727;86;21130;-61
2023/08/03 00:23:51;;;;;;;10.65;8.08;;;;;;;20.29;96.14;99440.81;1663658;86;21055;-64
2023/08/03 00:26:20;;;;;;;12.60;8.13;;;;;;;20.29;96.29;99449.72;1663618;86;21063;-63
2023/08/03 00:28:49;;;;;;;9.85;7.72;;;;;;;20.29;96.36;99449.16;1663534;86;21011;-63
2023/08/03 00:31:18;;;;;;;10.88;8.00;;;;;;;20.32;96.39;99446.37;1640182;86;21118;-62
2023/08/03 00:33:50;;;;;;;10.85;7.35;;;;;;;20.32;96.46;99433.29;1663555;86;21071;-63
2023/08/03 00:36:20;;;;;;;9.80;8.15;;;;;;;20.34;96.69;99444.14;1663765;86;21051;-63
2023/08/03 00:38:49;;;;;;;10.95;8.10;;;;;;;20.36;96.63;99452.47;1663591;86;21091;-63
2023/08/03 00:41:19;;;;;;;11.03;7.92;;;;;;;20.36;96.60;99451.08;1663659;86;21063;-63
2023/08/03 00:43:48;;;;;;;11.25;7.72;;;;;;;20.36;96.52;99449.69;1663535;86;21059;-62
2023/08/03 00:46:17;;;;;;;12.30;8.00;;;;;;;20.34;96.67;99457.48;1663571;86;21047;-62
2023/08/03 00:48:47;;;;;;;12.37;8.08;;;;;;;20.32;96.91;99456.11;1663507;86;21098;-65
2023/08/03 00:51:19;;;;;;;12.43;7.47;;;;;;;20.33;96.91;99459.16;1663680;86;21075;-62
2023/08/03 00:53:48;;;;;;;12.00;8.20;;;;;;;20.33;96.95;99456.38;1664035;86;21513;-62
2023/08/03 00:56:17;;;;;;;10.28;8.03;;;;;;;20.32;97.03;99458.33;1663775;86;21600;-62
2023/08/03 00:58:47;;;;;;;12.15;7.92;;;;;;;20.32;97.12;99461.67;1663608;86;21503;-62
2023/08/03 01:01:17;;;;;;;12.23;7.92;;;;;;;20.34;97.10;99465.00;1663268;86;21094;-62
2023/08/03 01:03:46;;;;;;;9.68;7.17;;;;;;;20.37;97.13;99469.99;1663683;86;21109;-63
2023/08/03 01:06:16;;;;;;;7.75;6.87;;;;;;;20.37;97.05;99461.09;1663606;86;21109;-62
2023/08/03 01:08:46;;;;;;;9.45;7.25;;;;;;;20.35;96.99;99463.33;1663757;86;21079;-61
2023/08/03 01:11:16;;;;;;;9.10;6.85;;;;;;;20.32;96.74;99462.50;1663800;86;21061;-64
2023/08/03 01:13:46;;;;;;;10.75;7.22;;;;;;;20.31;96.66;99463.62;1663420;86;21094;-62
2023/08/03 01:16:16;;;;;;;8.65;7.25;;;;;;;20.32;96.47;99465.84;1663570;86;21495;-61
2023/08/03 01:18:45;;;;;;;10.82;7.75;;;;;;;20.31;96.44;99470.58;1663725;86;21063;-62
2023/08/03 01:21:15;;;;;;;10.53;6.97;;;;;;;20.32;96.33;99465.84;1663851;86;21042;-61
2023/08/03 01:23:45;;;;;;;8.70;7.08;;;;;;;20.30;96.07;99461.95;1663691;86;21552;-62
2023/08/03 01:26:14;;;;;;;9.25;7.22;;;;;;;20.29;95.86;99465.85;1663714;86;21102;-61
2023/08/03 01:28:44;;;;;;;8.60;7.33;;;;;;;20.29;95.92;99462.24;1663607;86;21090;-63
2023/08/03 01:31:15;;;;;;;10.20;7.35;;;;;;;20.27;95.80;99466.70;1663653;86;21059;-61
2023/08/03 01:33:44;;;;;;;10.48;7.03;;;;;;;20.24;95.73;99468.66;1641218;86;21094;-63
2023/08/03 01:36:14;;;;;;;8.10;7.12;;;;;;;20.22;95.93;99470.33;1663605;86;21102;-62
2023/08/03 01:38:43;;;;;;;8.70;7.03;;;;;;;20.24;96.15;99478.39;1663652;86;21071;-62
2023/08/03 01:41:12;;;;;;;10.72;7.45;;;;;;;20.24;96.16;99476.45;1663817;86;21086;-62
2023/08/03 01:43:41;;;;;;;9.38;7.28;;;;;;;20.23;96.25;99480.90;1663346;86;21074;-61
2023/08/03 01:46:11;;;;;;;13.93;8.03;;;;;;;20.26;96.39;99479.77;1663869;86;21436;-63
2023/08/03 01:48:40;;;;;;;11.65;7.62;;;;;;;20.29;96.17;99482.55;1663617;86;21561;-63
2023/08/03 01:51:09;;;;;;;9.83;7.33;;;;;;;20.31;96.15;99487.27;1663606;86;21501;-62
2023/08/03 01:53:39;;;;;;;9.15;6.95;;;;;;;20.34;96.14;99489.48;1663758;86;21455;-62
2023/08/03 01:56:08;;;;;;;8.88;6.60;;;;;;;20.35;95.81;99486.97;1663779;86;21051;-62
2023/08/03 01:58:37;;;;;;;10.38;7.30;;;;;;;20.36;95.61;99492.81;1663669;86;21105;-62
2023/08/03 02:01:06;;;;;;;8.90;6.95;;;;;;;20.38;95.34;99490.58;1663680;86;21098;-63
2023/08/03 02:03:35;;;;;;;7.35;6.50;;;;;;;20.41;95.09;99490.05;1663722;86;21564;-66
2023/08/03 02:06:04;;;;;;;10.05;6.90;;;;;;;20.43;94.71;99489.20;1663632;86;21059;-63
2023/08/03 02:08:34;;;;;;;6.83;6.00;;;;;;;20.43;94.47;99486.41;1663798;86;21074;-63
2023/08/03 02:11:05;;;;;;;7.42;6.08;;;;;;;20.45;94.37;99495.31;1663612;86;21070;-61
2023/08/03 02:13:34;;;;;;;7.60;6.50;;;;;;;20.45;94.05;99500.88;1663803;86;21154;-63
2023/08/03 02:16:09;;;;;;;8.63;6.83;;;;;;;20.46;93.80;99497.53;1663807;86;21157;-62
2023/08/03 02:18:42;;;;;;;9.50;6.47;;;;;;;20.46;93.70;99496.14;1664064;85;21123;-62
2023/08/03 02:21:11;;;;;;;7.80;5.90;;;;;;;20.47;93.57;99504.20;1665757;86;21102;-62
2023/08/03 02:23:40;;;;;;;7.67;6.53;;;;;;;20.47;93.37;99508.38;1665580;86;21063;-62
2023/08/03 02:26:09;;;;;;;8.40;6.60;;;;;;;20.46;93.29;99508.11;1665653;86;21106;-63
2023/08/03 02:28:38;;;;;;;7.45;6.17;;;;;;;20.47;93.38;99504.20;1665789;86;21047;-62
2023/08/03 02:31:07;;;;;;;6.70;5.37;;;;;;;20.51;93.18;99518.38;1665919;86;21074;-62
2023/08/03 02:33:40;;;;;;;7.60;5.60;;;;;;;20.53;93.01;99519.77;1665543;86;21095;-61
2023/08/03 02:36:10;;;;;;;7.42;5.70;;;;;;;20.51;92.45;99523.39;1665914;86;21051;-62
2023/08/03 02:38:40;;;;;;;8.45;5.78;;;;;;;20.50;91.99;99524.51;1665926;86;21051;-62
2023/08/03 02:41:11;;;;;;;7.70;5.05;;;;;;;20.50;91.61;99525.06;1665755;86;21099;-62
2023/08/03 02:43:39;;;;;;;6.62;5.58;;;;;;;20.51;91.51;99528.13;1665854;86;21039;-63
2023/08/03 02:46:09;;;;;;;6.22;5.58;;;;;;;20.52;91.49;99542.31;1665971;86;21094;-62
2023/08/03 02:48:38;;;;;;;11.08;5.67;;;;;;;20.52;91.51;99545.93;1665959;86;21086;-63
2023/08/03 02:51:07;;;;;;;9.58;6.30;;;;;;;20.53;91.76;99551.77;1666000;86;21066;-62
2023/08/03 02:53:37;;;;;;;7.62;5.40;;;;;;;20.51;91.71;99554.56;1665678;86;21490;-63
2023/08/03 02:56:06;;;;;;;5.80;4.83;;;;;;;20.45;91.41;99552.91;1665759;86;21087;-64
2023/08/03 02:58:38;;;;;;;7.70;4.90;;;;;;;20.41;91.26;99559.61;1666226;86;21051;-63
2023/08/03 03:01:08;;;;;;;6.67;5.22;;;;;;;20.41;91.36;99556.83;1634604;86;21487;-63
2023/08/03 03:03:38;;;;;;;5.65;4.90;;;;;;;20.41;91.31;99567.13;1634591;86;21063;-62
2023/08/03 03:06:09;;;;;;;7.05;4.80;;;;;;;20.41;91.31;99567.13;1634605;86;21031;-62
2023/08/03 03:08:39;;;;;;;5.22;4.70;;;;;;;20.39;91.12;99572.97;1639648;86;21083;-63
2023/08/03 03:11:09;;;;;;;5.92;4.90;;;;;;;20.37;91.20;99572.38;1666056;86;21058;-63
2023/08/03 03:13:37;;;;;;;6.80;4.58;;;;;;;20.40;91.40;99576.58;1665772;86;21126;-63
2023/08/03 03:16:07;;;;;;;6.37;4.50;;;;;;;20.40;91.47;99571.85;1634753;86;21541;-63
2023/08/03 03:18:36;;;;;;;6.17;4.70;;;;;;;20.40;91.43;99576.02;1665647;86;21483;-63
2023/08/03 03:21:05;;;;;;;5.97;4.72;;;;;;;20.39;90.94;99576.27;1663691;86;21495;-64
2023/08/03 03:23:34;;;;;;;5.78;4.33;;;;;;;20.39;90.66;99572.97;1663686;86;21047;-62
2023/08/03 03:26:04;;;;;;;4.85;3.87;;;;;;;20.40;90.38;99579.37;1663635;86;21451;-62
2023/08/03 03:28:33;;;;;;;4.67;3.70;;;;;;;20.39;89.84;99579.05;1663860;86;21051;-62
2023/08/03 03:31:02;;;;;;;5.10;3.98;;;;;;;20.38;89.56;99579.62;1663728;86;21136;-63
2023/08/03 03:33:32;;;;;;;5.12;4.20;;;;;;;20.36;89.19;99581.02;1663724;86;21087;-62
2023/08/03 03:36:04;;;;;;;5.37;3.70;;;;;;;20.35;88.94;99569.05;1663172;86;21078;-61
2023/08/03 03:38:33;;;;;;;4.35;3.95;;;;;;;20.35;88.90;99585.75;1663695;86;21091;-63
2023/08/03 03:41:02;;;;;;;6.67;4.12;;;;;;;20.35;88.76;99585.75;1663723;86;21071;-63
2023/08/03 03:43:32;;;;;;;5.95;4.00;;;;;;;20.37;88.72;99591.03;1639744;86;21104;-62
2023/08/03 03:46:02;;;;;;;6.47;3.70;;;;;;;20.37;88.61;99591.86;1663677;86;21138;-62
2023/08/03 03:48:31;;;;;;;6.42;3.90;;;;;;;20.38;88.43;99587.13;1663861;86;21035;-62
2023/08/03 03:51:01;;;;;;;4.90;3.70;;;;;;;20.39;88.29;99591.05;1663621;86;21047;-61
2023/08/03 03:53:31;;;;;;;4.35;3.30;;;;;;;20.39;88.16;99591.05;1663663;86;21130;-62
2023/08/03 03:56:00;;;;;;;6.00;3.85;;;;;;;20.41;88.08;99598.56;1639727;86;21079;-62
2023/08/03 03:58:30;;;;;;;8.00;4.00;;;;;;;20.40;88.06;99595.50;1640426;86;21100;-62
2023/08/03 04:01:00;;;;;;;5.53;3.83;;;;;;;20.39;87.77;99598.01;1663758;86;21138;-62
2023/08/03 04:03:29;;;;;;;4.65;3.50;;;;;;;20.37;87.74;99590.47;1663774;86;21027;-61
2023/08/03 04:06:00;;;;;;;4.80;3.90;;;;;;;20.34;87.46;99594.38;1663319;86;21031;-63
2023/08/03 04:08:31;;;;;;;6.17;3.67;;;;;;;20.32;87.58;99600.22;1663490;86;21020;-62
2023/08/03 04:11:00;;;;;;;4.40;3.30;;;;;;;20.29;87.56;99602.17;1663546;86;21511;-63
2023/08/03 04:13:31;;;;;;;10.63;4.15;;;;;;;20.29;87.58;99599.39;1663709;86;21079;-62
2023/08/03 04:16:00;;;;;;;6.20;3.72;;;;;;;20.30;87.35;99596.05;1663668;86;21055;-62
2023/08/03 04:18:31;;;;;;;3.80;3.40;;;;;;;20.29;87.29;99595.22;1663662;86;21035;-61
2023/08/03 04:21:00;;;;;;;6.58;4.42;;;;;;;20.32;87.36;99591.88;1665555;86;21095;-62
2023/08/03 04:23:30;;;;;;;4.42;3.87;;;;;;;20.36;87.34;99588.80;1665803;86;21110;-63
2023/08/03 04:26:00;;;;;;;6.70;3.62;;;;;;;20.41;87.10;99594.39;1665821;86;21102;-62
2023/08/03 04:28:30;;;;;;;4.35;3.70;;;;;;;20.45;86.79;99595.48;1665885;86;21063;-62
2023/08/03 04:30:59;;;;;;;4.92;3.67;;;;;;;20.49;86.19;99598.54;1666005;86;21096;-62
2023/08/03 04:33:29;;;;;;;4.45;3.77;;;;;;;20.52;86.01;99598.81;1665761;86;21058;-61
2023/08/03 04:36:00;;;;;;;4.10;3.65;;;;;;;20.61;85.80;99594.05;1665681;86;21063;-64
2023/08/03 04:38:31;;;;;;;4.87;3.65;;;;;;;20.66;85.16;99594.03;1665445;86;21778;-62
2023/08/03 04:41:01;;;;;;;6.28;3.77;;;;;;;20.68;84.76;99598.76;1665836;86;21489;-63
2023/08/03 04:43:32;;;;;;;4.80;3.58;;;;;;;20.70;84.36;99614.06;1665827;86;21063;-63
2023/08/03 04:46:01;;;;;;;5.50;3.50;;;;;;;20.72;83.88;99624.36;1665623;86;21490;-63
2023/08/03 04:48:29;;;;;;;5.33;3.72;;;;;;;20.72;83.51;99620.17;1665647;86;21102;-63
2023/08/03 04:50:59;;;;;;;8.65;3.50;;;;;;;20.71;83.37;99617.12;1665856;86;21062;-62
2023/08/03 04:53:28;;;;;;;7.40;4.90;;;;;;;20.72;83.34;99618.78;1665973;86;21066;-63
2023/08/03 04:55:57;;;;;;;4.20;3.80;;;;;;;20.74;83.34;99629.64;1665612;86;21039;-63
2023/08/03 04:58:26;;;;;;;5.83;3.70;;;;;;;20.76;82.73;99633.81;1665754;86;21455;-62
2023/08/03 05:00:55;;;;;;;5.50;4.03;;;;;;;20.76;82.57;99635.76;1666004;86;21090;-62
2023/08/03 05:03:25;;;;;;;4.40;3.40;;;;;;;20.76;82.47;99646.33;1665753;86;21176;-63
2023/08/03 05:05:55;;;;;;;5.75;3.85;;;;;;;20.76;82.37;99645.50;1665897;86;21088;-64
2023/08/03 05:08:25;;;;;;;5.10;3.80;;;;;;;20.79;82.12;99649.11;1665876;86;21227;-63
2023/08/03 05:10:54;;;;;;;6.47;3.65;;;;;;;20.80;82.10;99653.56;1666047;86;21120;-62
2023/08/03 05:13:25;;;;;;;6.33;4.20;;;;;;;20.84;82.07;99661.09;1666026;86;21557;-64
2023/08/03 05:15:55;;;;;;;5.67;3.47;;;;;;;20.87;81.82;99664.70;1665869;86;21105;-62
2023/08/03 05:18:25;;;;;;;7.75;3.80;;;;;;;20.90;81.59;99671.66;1665982;86;21301;-62
2023/08/03 05:20:55;;;;;;;4.17;3.60;;;;;;;20.93;81.26;99673.87;1665904;86;21098;-61
2023/08/03 05:23:25;;;;;;;5.50;3.47;;;;;;;20.96;81.01;99668.30;1665712;86;21517;-63
2023/08/03 05:25:55;;;;;;;4.92;4.12;;;;;;;20.99;80.61;99671.35;1665891;86;21115;-63
2023/08/03 05:28:25;;;;;;;5.12;3.80;;;;;;;21.03;80.61;99667.44;1634975;86;21106;-63
2023/08/03 05:30:55;;;;;;;5.45;3.90;;;;;;;21.07;80.06;99661.02;1639777;86;21528;-62
2023/08/03 05:33:24;;;;;;;8.25;3.60;;;;;;;21.11;79.54;99679.38;1665977;86;21105;-64
2023/08/03 05:35:53;;;;;;;9.18;3.85;;;;;;;21.14;79.35;99683.83;1665757;86;21146;-64
2023/08/03 05:38:22;;;;;;;5.28;3.22;;;;;;;21.23;79.11;99680.48;1665491;86;21138;-63
2023/08/03 05:40:50;;;;;;;7.53;4.00;;;;;;;21.35;79.08;99686.55;1666115;86;21482;-63
2023/08/03 05:43:19;;;;;;;5.33;3.83;;;;;;;21.47;78.55;99694.05;1665761;86;21051;-62
2023/08/03 05:45:56;;;;;;;5.25;3.70;;;;;;;21.58;77.96;99693.43;1665896;86;21031;-63
2023/08/03 05:48:24;;;;;;;;;;;;;;;21.67;77.15;99695.88;1668273;86;21564;-62
2023/08/03 05:50:55;;;;;;;6.53;3.30;;;;;;;21.73;76.82;99694.17;1665967;86;20315;-63
2023/08/03 05:53:23;;;;;;;4.25;3.42;;;;;;;21.76;76.51;99692.20;1665770;86;21079;-61
2023/08/03 05:55:52;;;;;;;5.00;3.60;;;;;;;;;;1665981;86;21122;-63
2023/08/03 05:58:23;;;;;;;5.65;3.70;;;;;;;21.79;75.19;99699.98;1699043;83;21059;-63
2023/08/03 06:00:53;;;;;;;4.22;3.50;;;;;;;21.78;74.68;99699.72;1655743;85;21067;-63
2023/08/03 06:03:23;;;;;;;5.55;4.03;;;;;;;;;;1699683;84;21088;-65
2023/08/03 06:05:52;;;;;;;5.35;3.87;;;;;;;21.83;74.75;99690.48;1699892;84;21109;-62
2023/08/03 06:08:24;;;;;;;4.25;3.50;;;;;;;21.92;74.67;99688.75;1687264;85;21515;-63
2023/08/03 06:10:55;;;;;;;7.30;3.85;;;;;;;21.99;73.66;99687.02;1687181;85;21208;-63
2023/08/03 06:13:27;;;;;;;4.22;2.95;;;;;;;22.03;72.93;99686.18;1699734;84;21050;-62
2023/08/03 06:15:56;;;;;;;4.22;3.52;;;;;;;22.07;72.49;99688.66;1687249;85;21102;-65
2023/08/03 06:18:25;;;;;;;5.25;3.33;;;;;;;22.11;72.51;99686.98;1687277;85;21262;-63
2023/08/03 06:20:55;;;;;;;4.87;3.77;;;;;;;22.18;72.24;99690.84;1690320;83;21109;-64
2023/08/03 06:23:28;;;;;;;5.85;3.90;;;;;;;22.23;71.98;99682.42;1692505;83;21047;-63
2023/08/03 06:25:59;;;;;;;7.28;4.22;;;;;;;22.30;71.99;99686.27;1692237;85;21132;-64
2023/08/03 06:28:28;;;;;;;5.03;3.62;;;;;;;22.36;71.33;99687.89;1692362;85;21101;-64
2023/08/03 06:30:58;;;;;;;5.40;3.47;;;;;;;22.38;71.03;99694.02;1692507;85;21114;-62
2023/08/03 06:33:26;;;;;;;6.03;3.25;;;;;;;22.40;70.23;99682.83;1692519;85;21086;-62
2023/08/03 06:35:57;;;;;;;4.83;3.62;;;;;;;22.52;70.97;99684.39;1692604;83;21102;-63
2023/08/03 06:38:27;;;;;;;5.28;3.50;;;;;;;22.79;70.15;99686.09;1692295;85;21035;-62
2023/08/03 06:40:57;;;;;;;4.25;3.30;;;;;;;23.18;68.07;99688.75;1692223;85;21031;-63
2023/08/03 06:43:26;;;;;;;4.95;3.70;;;;;;;23.47;67.08;99681.69;1692203;83;21417;-63
2023/08/03 06:45:56;;;;;;;4.60;3.75;;;;;;;23.82;66.87;99689.33;1692518;85;21106;-63
2023/08/03 06:48:27;;;;;;;5.67;3.35;;;;;;;24.18;65.46;99689.06;1692403;85;21086;-63
2023/08/03 06:50:56;;;;;;;5.92;3.95;;;;;;;24.42;64.41;99688.97;1692298;85;21495;-63
2023/08/03 06:53:25;;;;;;;6.22;4.20;;;;;;;24.50;63.33;99694.44;1692564;85;21197;-63
2023/08/03 06:55:55;;;;;;;4.28;3.30;;;;;;;24.40;62.88;99696.84;1692348;85;21518;-64
2023/08/03 06:58:25;;;;;;;4.90;3.80;;;;;;;24.28;63.40;99697.89;1615020;89;21163;-63
2023/08/03 07:00:54;;;;;;;5.45;3.60;;;;;;;24.15;63.94;99703.67;1615449;89;21141;-63
2023/08/03 07:03:23;;;;;;;5.08;3.47;;;;;;;24.06;63.63;99702.70;1615205;89;21073;-63
2023/08/03 07:05:53;;;;;;;7.22;4.22;;;;;;;23.99;63.82;99704.45;1615226;89;21030;-62
2023/08/03 07:08:24;;;;;;;9.10;5.75;;;;;;;24.13;64.13;99705.12;1615418;89;21103;-63
2023/08/03 07:10:53;;;;;;;3.75;3.35;;;;;;;24.37;63.32;99703.63;1615432;89;21172;-64
2023/08/03 07:13:23;;;;;;;5.42;3.52;;;;;;;24.52;62.38;99708.40;1615193;89;21093;-64
2023/08/03 07:15:54;;;;;;;5.10;3.52;;;;;;;24.58;61.80;99709.14;1632718;85;21067;-64
2023/08/03 07:18:25;;;;;;;8.65;3.67;;;;;;;24.66;61.25;99704.23;1670464;85;21034;-62
2023/08/03 07:20:54;;;;;;;6.12;3.70;;;;;;;24.89;60.53;99701.86;1694945;83;21074;-63
2023/08/03 07:23:23;;;;;;;5.28;4.10;;;;;;;25.23;59.41;99711.87;1694936;83;21125;-63
2023/08/03 07:25:53;;;;;;;7.30;4.87;;;;;;;25.45;58.24;99699.95;1695026;83;21113;-64
2023/08/03 07:28:22;;;;;;;5.00;4.08;;;;;;;25.54;57.83;99700.88;1694917;85;21066;-63
2023/08/03 07:30:51;;;;;;;8.53;4.12;;;;;;;25.49;58.11;99696.20;1694802;84;21467;-62
2023/08/03 07:33:21;;;;;;;5.72;3.75;;;;;;;25.42;58.15;99699.17;1694811;85;21477;-64
2023/08/03 07:35:51;;;;;;;6.33;3.80;;;;;;;25.34;58.62;99695.09;1694833;85;21054;-63
2023/08/03 07:38:20;;;;;;;4.95;3.70;;;;;;;25.37;58.73;99695.08;1694937;85;21094;-62
2023/08/03 07:40:49;;;;;;;6.95;3.77;;;;;;;25.55;58.71;99692.14;1694771;83;21560;-63
2023/08/03 07:43:18;;;;;;;4.80;3.40;;;;;;;25.86;57.06;99692.88;1673603;85;21118;-63
2023/08/03 07:45:49;;;;;;;5.80;3.90;;;;;;;26.12;56.81;99702.38;1694667;85;21134;-62
2023/08/03 07:48:20;;;;;;;4.30;3.80;;;;;;;26.38;56.33;99695.59;1695031;85;21255;-62
2023/08/03 07:50:50;;;;;;;5.05;3.62;;;;;;;26.92;54.40;99699.24;1694809;85;21058;-63
2023/08/03 07:53:19;;;;;;;14.23;5.87;;;;;;;26.92;54.40;99699.24;1694808;85;21031;-62
2023/08/03 07:55:48;;;;;;;21.02;12.55;;;;;;;27.16;53.44;99699.70;1694806;85;21544;-62
2023/08/03 07:58:19;;;;;;;6.17;4.35;;;;;;;27.40;52.10;99690.88;1695087;85;21071;-62
2023/08/03 08:00:48;;;;;;;4.55;3.92;;;;;;;27.46;50.30;99692.39;1695025;85;21081;-62
2023/08/03 08:03:17;;;;;;;4.95;3.72;;;;;;;27.38;50.83;99692.36;1694766;83;21462;-62
2023/08/03 08:05:46;;;;;;;6.25;4.75;;;;;;;27.41;50.38;99695.93;1694819;83;21054;-64
2023/08/03 08:08:15;;;;;;;5.80;4.05;;;;;;;27.22;50.82;99690.55;1694890;85;21086;-63
2023/08/03 08:10:51;;;;;;;4.55;4.08;;;;;;;27.00;51.89;99690.05;1694926;85;21078;-60
2023/08/03 08:13:22;;;;;;;7.62;3.85;;;;;;;26.96;52.33;99693.80;1692357;84;21544;-61
2023/08/03 08:15:51;;;;;;;6.00;4.33;;;;;;;27.14;52.03;99695.56;1694828;85;21571;-66
2023/08/03 08:18:21;;;;;;;6.42;4.20;;;;;;;27.32;52.30;99693.09;1695051;85;21078;-63
2023/08/03 08:20:58;;;;;;;31.15;6.78;;;;;;;27.46;52.20;99694.38;1702794;83;21072;-65
2023/08/03 08:23:28;;;;;;;19.52;6.25;;;;;;;27.50;51.08;99695.38;1748596;82;21482;-63
2023/08/03 08:26:00;;;;;;;13.20;7.08;;;;;;;27.28;50.14;99700.49;1752691;82;21490;-63
2023/08/03 08:28:30;;;;;;;10.98;6.03;;;;;;;26.85;50.59;99703.09;1749709;82;21507;-66
2023/08/03 08:31:00;;;;;;;6.92;4.25;;;;;;;26.51;51.97;99702.28;1728034;82;21082;-67
2023/08/03 08:33:29;;;;;;;6.35;4.47;;;;;;;26.64;52.85;99701.38;1727440;82;21082;-66
2023/08/03 08:35:58;;;;;;;6.87;4.20;;;;;;;26.64;52.85;99701.38;1714377;82;21067;-66
2023/08/03 08:38:27;;;;;;;6.90;4.37;;;;;;;26.88;52.42;99700.21;1691120;85;21053;-66
2023/08/03 08:40:56;;;;;;;6.78;4.17;;;;;;;27.22;52.42;99704.61;1686533;85;21072;-65
2023/08/03 08:43:27;;;;;;;6.53;4.45;;;;;;;27.91;50.47;99697.78;1686316;85;21578;-69
2023/08/03 08:45:57;;;;;;;6.17;4.10;;;;;;;27.91;50.47;99697.78;1686456;85;21585;-67
2023/08/03 08:48:26;;;;;;;6.97;4.37;;;;;;;28.07;49.56;99704.61;1682175;84;21546;-65
2023/08/03 08:51:01;;;;;;;7.08;4.33;;;;;;;28.25;49.77;99701.83;1714148;84;21064;-66
2023/08/03 08:53:32;;;;;;;7.42;4.67;;;;;;;28.50;49.04;99708.59;1691230;84;21490;-67
2023/08/03 08:56:03;;;;;;;9.25;5.03;;;;;;;28.67;48.60;99708.01;1711329;84;21309;-66
2023/08/03 08:58:34;;;;;;;11.33;5.00;;;;;;;28.83;48.88;99711.13;1711597;84;21049;-67
2023/08/03 09:01:05;;;;;;;8.93;5.25;;;;;;;29.16;48.08;99714.19;1715148;84;21550;-65
2023/08/03 09:03:48;;;;;;;8.90;5.00;;;;;;;29.34;46.90;99707.91;1715223;84;21040;-66
2023/08/03 09:06:20;;;;;;;9.63;4.17;;;;;;;29.48;46.34;99708.53;1685588;85;21044;-65
2023/08/03 09:08:56;;;;;;;5.05;3.92;;;;;;;29.61;44.98;99717.92;1686609;85;21128;-66
2023/08/03 09:11:40;;;;;;;4.87;3.70;;;;;;;29.66;44.49;99714.90;1686605;85;21120;-66
2023/08/03 09:14:14;;;;;;;4.60;3.52;;;;;;;29.61;44.07;99708.86;1686497;85;21111;-70
2023/08/03 09:16:42;;;;;;;3.60;2.92;;;;;;;29.61;44.55;99704.63;1686511;85;21092;-69
2023/08/03 09:19:12;;;;;;;4.12;2.92;;;;;;;29.61;44.60;99710.86;1686402;85;21092;-67
2023/08/03 09:21:58;;;;;;;3.90;2.72;;;;;;;29.55;44.07;99716.45;1685986;85;21184;-69
2023/08/03 09:24:30;;;;;;;4.47;3.27;;;;;;;29.46;43.98;99715.09;1686345;85;21108;-69
2023/08/03 09:27:01;;;;;;;4.50;3.10;;;;;;;29.36;44.17;99718.27;1686371;85;21056;-68
2023/08/03 09:29:32;;;;;;;4.62;3.10;;;;;;;29.12;44.34;99724.49;1686378;85;21562;-67
2023/08/03 09:32:06;;;;;;;4.15;2.92;;;;;;;28.81;45.28;99716.27;1686391;85;21080;-67
2023/08/03 09:34:42;;;;;;;3.90;2.50;;;;;;;28.66;45.63;99721.03;1683257;85;21060;-65
2023/08/03 09:37:14;;;;;;;5.95;3.05;;;;;;;28.55;45.69;99728.15;1686421;85;21147;-68
2023/08/03 09:39:53;;;;;;;3.60;3.20;;;;;;;28.46;45.70;99722.52;1706751;84;21064;-68
2023/08/03 09:42:23;;;;;;;3.90;2.87;;;;;;;28.39;45.37;99724.44;1712230;84;21060;-67
2023/08/03 09:44:55;;;;;;;3.52;2.72;;;;;;;28.28;45.63;99728.75;1715022;84;21530;-67
2023/08/03 09:47:24;;;;;;;3.50;2.70;;;;;;;28.18;45.93;99727.65;1714959;84;22014;-66
2023/08/03 09:49:56;;;;;;;4.50;2.83;;;;;;;28.18;46.11;99719.20;1714961;84;21072;-66
2023/08/03 09:52:27;;;;;;;4.15;2.95;;;;;;;28.23;46.16;99714.84;1715015;84;21056;-68
2023/08/03 09:55:20;;;;;;;3.95;2.67;;;;;;;28.24;46.32;99708.04;1715071;84;21488;-68
2023/08/03 09:58:09;;;;;;;3.15;2.60;;;;;;;28.29;46.00;99707.05;1715015;83;21492;-68
2023/08/03 10:00:37;;;;;;;5.40;2.90;;;;;;;28.31;45.74;99711.77;1715132;84;21076;-68
2023/08/03 10:03:12;;;;;;;4.65;3.95;;;;;;;28.26;45.48;99720.39;1715123;84;21492;-69
2023/08/03 10:05:50;;;;;;;3.58;2.72;;;;;;;28.17;45.22;99718.95;1715111;84;21107;-69
2023/08/03 10:08:43;;;;;;;4.55;2.72;;;;;;;28.12;45.18;99708.42;1714971;84;21099;-68
2023/08/03 10:11:15;;;;;;;4.40;2.42;;;;;;;28.11;44.36;99711.82;1714938;84;21096;-72
2023/08/03 10:13:47;;;;;;;4.25;2.65;;;;;;;27.99;44.47;99707.43;1715374;83;21065;-68
2023/08/03 10:16:20;;;;;;;3.30;2.25;;;;;;;27.88;44.51;99721.55;1715238;84;21056;-67
2023/08/03 10:18:51;;;;;;;5.70;2.60;;;;;;;27.75;44.97;99717.72;1715085;84;21115;-66
2023/08/03 10:21:21;;;;;;;5.20;2.98;;;;;;;27.69;45.19;99712.00;1713818;84;21065;-68
2023/08/03 10:24:12;;;;;;;2.60;2.33;;;;;;;27.67;45.33;99714.31;1714381;82;21080;-66
2023/08/03 10:26:43;;;;;;;2.85;2.50;;;;;;;27.69;45.23;99714.81;1715273;84;21621;-70
2023/08/03 10:29:13;;;;;;;3.08;2.72;;;;;;;27.69;45.23;99714.81;1715143;84;21052;-69
2023/08/03 10:31:55;;;;;;;4.45;2.37;;;;;;;27.69;44.35;99716.22;1715029;84;21484;-73
2023/08/03 10:34:29;;;;;;;4.40;2.90;;;;;;;27.66;43.73;99716.30;1715109;84;21024;-69
2023/08/03 10:36:59;;;;;;;4.25;2.83;;;;;;;27.51;43.58;99709.70;1715347;84;21060;-71
2023/08/03 10:39:58;;;;;;;2.95;2.65;;;;;;;27.42;43.83;99716.70;1696855;83;21079;-71
2023/08/03 10:42:34;;;;;;;3.52;2.70;;;;;;;27.40;44.46;99715.38;1686330;85;21132;-71
2023/08/03 10:45:26;;;;;;;2.80;2.30;;;;;;;27.31;45.19;99710.27;1603900;89;21168;-68
2023/08/03 10:47:58;;;;;;;4.83;2.72;;;;;;;27.30;44.73;99705.22;1603893;89;21099;-68
2023/08/03 10:51:02;;;;;;;2.33;2.12;;;;;;;27.28;44.81;99706.70;1603654;89;21126;-68
2023/08/03 10:53:33;;;;;;;3.42;2.40;;;;;;;27.29;44.89;99709.77;1603840;89;21094;-67
2023/08/03 10:56:08;;;;;;;6.60;2.58;;;;;;;27.36;44.51;99701.13;1603886;89;21123;-67
2023/08/03 10:58:48;;;;;;;10.20;5.20;;;;;;;27.35;44.22;99702.28;1603687;89;21107;-65
2023/08/03 11:01:24;;;;;;;3.75;2.60;;;;;;;27.36;44.01;99698.31;1603836;89;21083;-65
2023/08/03 11:03:54;;;;;;;5.20;2.62;;;;;;;27.43;44.17;99700.66;1645364;85;21068;-66
2023/08/03 11:06:27;;;;;;;3.02;2.27;;;;;;;27.43;44.49;99690.23;1686615;85;21187;-67
2023/08/03 11:08:57;;;;;;;5.12;2.30;;;;;;;27.44;44.24;99693.30;1686431;85;21084;-67
2023/08/03 11:11:32;;;;;;;3.27;2.83;;;;;;;27.41;44.11;99692.54;1686331;85;21336;-67
2023/08/03 11:13:56;;;;;;;4.45;2.60;;;;;;;27.36;44.73;99687.06;1686337;85;21181;-67
2023/08/03 11:16:26;;;;;;;4.70;2.70;;;;;;;27.38;44.80;99680.53;1640466;85;21082;-69
2023/08/03 11:18:55;;;;;;;2.05;1.87;;;;;;;27.43;44.70;99684.60;1685814;85;21573;-67
2023/08/03 11:21:24;;;;;;;3.70;2.20;;;;;;;27.46;44.73;99690.16;1683901;85;21180;-66
2023/08/03 11:23:54;;;;;;;2.85;2.30;;;;;;;27.51;44.44;99687.77;1661903;86;21067;-67
2023/08/03 11:26:24;;;;;;;7.53;2.47;;;;;;;27.56;44.21;99688.44;1664309;86;21511;-65
2023/08/03 11:28:54;;;;;;;2.87;2.22;;;;;;;27.48;43.51;99686.43;1661982;86;21083;-65
2023/08/03 11:31:23;;;;;;;2.60;2.20;;;;;;;27.48;43.51;99686.43;1664282;86;21502;-65
2023/08/03 11:33:54;;;;;;;3.15;2.05;;;;;;;27.42;43.79;99689.97;1661990;85;21483;-65
2023/08/03 11:36:24;;;;;;;3.22;2.30;;;;;;;27.36;44.46;99691.86;1664411;86;21096;-67
2023/08/03 11:38:53;;;;;;;4.97;2.60;;;;;;;27.38;44.29;99691.78;1660093;86;21075;-65
2023/08/03 11:41:24;;;;;;;3.17;2.45;;;;;;;27.44;44.02;99688.24;1657223;86;21052;-64
2023/08/03 11:43:55;;;;;;;3.87;2.05;;;;;;;27.47;44.14;99689.00;1690221;85;21055;-66
2023/08/03 11:46:27;;;;;;;3.72;2.30;;;;;;;27.50;43.60;99687.52;1691338;85;21051;-66
2023/08/03 11:48:57;;;;;;;5.12;2.10;;;;;;;27.53;43.34;99682.05;1691119;85;21452;-65
2023/08/03 11:51:39;;;;;;;2.30;2.10;;;;;;;27.53;42.98;99679.82;1691166;85;21098;-65